createdAt,value
2023-03-16T00:00:15.032Z,79.33
2023-03-16T00:02:43.849Z,79.10
2023-03-16T00:05:13.213Z,78.99
2023-03-16T00:07:43.934Z,78.66
2023-03-16T00:10:12.771Z,78.95
2023-03-16T00:12:59.099Z,78.60
2023-03-16T00:15:28.174Z,78.44
2023-03-16T00:17:56.897Z,78.77
2023-03-16T00:20:25.636Z,78.62
2023-03-16T00:22:53.794Z,78.88
2023-03-16T00:25:21.638Z,79.17
2023-03-16T00:27:50.293Z,79.32
2023-03-16T00:30:18.380Z,78.95
2023-03-16T00:32:47.206Z,78.82
2023-03-16T00:35:19.071Z,78.83
2023-03-16T00:37:47.480Z,79.21
2023-03-16T00:40:17.105Z,78.88
2023-03-16T00:42:45.650Z,79.03
2023-03-16T00:45:18.198Z,78.87
2023-03-16T00:47:46.846Z,79.00
2023-03-16T00:50:16.098Z,79.07
2023-03-16T00:52:45.260Z,79.01
2023-03-16T00:55:14.072Z,79.08
2023-03-16T00:57:45.143Z,79.33
2023-03-16T01:00:16.302Z,79.37
2023-03-16T01:02:45.768Z,79.18
2023-03-16T01:05:42.589Z,79.74
2023-03-16T01:08:10.592Z,79.60
2023-03-16T01:10:38.421Z,79.95
2023-03-16T01:13:07.978Z,79.97
2023-03-16T01:15:36.452Z,80.39
2023-03-16T01:18:06.749Z,81.31
2023-03-16T01:20:36.019Z,81.41
2023-03-16T01:23:03.854Z,81.59
2023-03-16T01:25:33.559Z,80.91
2023-03-16T01:28:02.133Z,80.72
2023-03-16T01:30:33.082Z,80.68
2023-03-16T01:33:02.477Z,80.60
2023-03-16T01:35:34.337Z,80.73
2023-03-16T01:38:02.573Z,80.92
2023-03-16T01:40:32.929Z,81.00
2023-03-16T01:43:02.850Z,81.15
2023-03-16T01:46:05.094Z,81.47
2023-03-16T01:48:49.335Z,81.88
2023-03-16T01:51:48.315Z,81.78
2023-03-16T01:54:23.311Z,81.94
2023-03-16T01:57:07.045Z,81.68
2023-03-16T01:59:58.188Z,81.49
2023-03-16T02:02:27.930Z,81.41
2023-03-16T02:05:13.800Z,81.47
2023-03-16T02:07:49.678Z,81.23
2023-03-16T02:10:19.201Z,80.99
2023-03-16T02:12:47.375Z,81.37
2023-03-16T02:15:15.685Z,81.69
2023-03-16T02:17:47.530Z,81.15
2023-03-16T02:20:31.318Z,80.74
2023-03-16T02:22:59.285Z,80.90
2023-03-16T02:25:32.435Z,80.89
2023-03-16T02:28:03.704Z,80.84
2023-03-16T02:30:33.462Z,81.07
2023-03-16T02:33:05.537Z,80.58
2023-03-16T02:35:33.826Z,80.39
2023-03-16T02:38:03.494Z,80.12
2023-03-16T02:40:35.755Z,80.74
2023-03-16T02:43:11.950Z,80.53
2023-03-16T02:45:51.539Z,80.62
2023-03-16T02:48:35.930Z,80.72
2023-03-16T02:51:04.958Z,80.86
2023-03-16T02:53:33.841Z,81.09
2023-03-16T02:56:03.488Z,81.14
2023-03-16T02:58:36.538Z,81.53
2023-03-16T03:01:09.751Z,82.51
2023-03-16T03:03:37.785Z,81.42
2023-03-16T03:06:06.440Z,81.58
2023-03-16T03:08:37.180Z,81.40
2023-03-16T03:11:05.325Z,83.49
2023-03-16T03:13:36.690Z,82.90
2023-03-16T03:16:06.259Z,83.03
2023-03-16T03:18:35.358Z,83.06
2023-03-16T03:21:07.450Z,83.55
2023-03-16T03:23:36.629Z,85.21
2023-03-16T03:26:04.665Z,85.54
2023-03-16T03:28:34.478Z,85.09
2023-03-16T03:31:03.361Z,84.74
2023-03-16T03:33:35.356Z,85.35
2023-03-16T03:36:05.251Z,84.56
2023-03-16T03:38:38.099Z,84.12
2023-03-16T03:41:08.361Z,84.05
2023-03-16T03:43:40.152Z,83.53
2023-03-16T03:46:19.404Z,83.66
2023-03-16T03:48:47.510Z,83.37
2023-03-16T03:51:15.450Z,83.49
2023-03-16T03:53:47.418Z,83.63
2023-03-16T03:56:22.362Z,83.38
2023-03-16T03:58:51.127Z,83.79
2023-03-16T04:01:42.442Z,83.39
2023-03-16T04:04:11.544Z,83.42
2023-03-16T04:06:40.485Z,83.06
2023-03-16T04:09:09.273Z,83.75
2023-03-16T04:11:38.288Z,83.80
2023-03-16T04:14:07.057Z,83.66
2023-03-16T04:16:36.147Z,83.55
2023-03-16T04:19:05.330Z,83.83
2023-03-16T04:21:34.328Z,83.82
2023-03-16T04:24:10.479Z,83.67
2023-03-16T04:26:40.229Z,83.56
2023-03-16T04:29:08.027Z,83.91
2023-03-16T04:31:36.692Z,83.76
2023-03-16T04:34:05.549Z,83.99
2023-03-16T04:36:35.175Z,84.73
2023-03-16T04:39:05.093Z,84.34
2023-03-16T04:41:33.633Z,83.58
2023-03-16T04:44:15.109Z,83.51
2023-03-16T04:46:44.181Z,83.52
2023-03-16T04:49:14.413Z,83.00
2023-03-16T04:51:46.469Z,83.11
2023-03-16T04:54:18.795Z,83.30
2023-03-16T04:56:48.358Z,83.12
2023-03-16T04:59:32.454Z,82.94
2023-03-16T05:02:21.417Z,83.17
2023-03-16T05:05:11.541Z,82.89
2023-03-16T05:07:48.272Z,82.44
2023-03-16T05:10:19.177Z,82.47
2023-03-16T05:12:48.229Z,82.47
2023-03-16T05:15:22.149Z,82.51
2023-03-16T05:18:13.648Z,82.26
2023-03-16T05:20:45.748Z,82.12
2023-03-16T05:23:17.142Z,82.05
2023-03-16T05:25:49.488Z,82.33
2023-03-16T05:28:22.327Z,82.40
2023-03-16T05:30:57.217Z,82.92
2023-03-16T05:33:33.801Z,82.75
2023-03-16T05:36:08.258Z,82.51
2023-03-16T05:38:39.601Z,82.95
2023-03-16T05:41:11.395Z,82.89
2023-03-16T05:43:59.712Z,82.58
2023-03-16T05:46:37.471Z,82.31
2023-03-16T05:49:07.376Z,82.24
2023-03-16T05:51:35.769Z,84.14
2023-03-16T05:54:06.798Z,83.49
2023-03-16T05:56:44.494Z,83.22
2023-03-16T05:59:13.669Z,82.93
2023-03-16T06:02:22.594Z,83.27
2023-03-16T06:04:51.793Z,84.69
2023-03-16T06:07:21.320Z,84.31
2023-03-16T06:09:51.462Z,84.88
2023-03-16T06:12:21.246Z,84.64
2023-03-16T06:14:50.293Z,84.04
2023-03-16T06:17:23.212Z,83.18
2023-03-16T06:19:53.262Z,83.15
2023-03-16T06:22:21.381Z,82.94
2023-03-16T06:24:56.185Z,82.99
2023-03-16T06:27:28.974Z,82.49
2023-03-16T06:30:13.684Z,82.44
2023-03-16T06:32:42.970Z,82.41
2023-03-16T06:35:10.824Z,82.67
2023-03-16T06:37:42.840Z,82.55
2023-03-16T06:40:24.014Z,82.50
2023-03-16T06:42:54.989Z,82.38
2023-03-16T06:45:26.029Z,82.07
2023-03-16T06:47:57.002Z,82.12
2023-03-16T06:50:25.503Z,81.77
2023-03-16T06:52:53.739Z,81.98
2023-03-16T06:55:27.861Z,81.34
2023-03-16T06:57:56.578Z,81.59
2023-03-16T07:00:26.679Z,81.72
2023-03-16T07:02:54.973Z,81.16
2023-03-16T07:05:23.113Z,80.83
2023-03-16T07:07:55.076Z,81.26
2023-03-16T07:10:23.585Z,81.00
2023-03-16T07:12:51.857Z,81.17
2023-03-16T07:15:21.331Z,81.09
2023-03-16T07:17:50.099Z,80.59
2023-03-16T07:20:18.251Z,80.34
2023-03-16T07:22:46.628Z,80.25
2023-03-16T07:25:15.984Z,80.16
2023-03-16T07:27:49.672Z,79.96
2023-03-16T07:30:26.176Z,79.76
2023-03-16T07:32:55.327Z,79.72
2023-03-16T07:35:26.982Z,80.13
2023-03-16T07:37:56.185Z,80.69
2023-03-16T07:40:27.196Z,80.47
2023-03-16T07:43:01.814Z,80.20
2023-03-16T07:45:36.478Z,80.02
2023-03-16T07:48:07.717Z,79.86
2023-03-16T07:50:49.367Z,79.88
2023-03-16T07:53:24.121Z,80.27
2023-03-16T07:56:02.503Z,80.68
2023-03-16T07:58:33.594Z,80.13
2023-03-16T08:01:02.036Z,80.18
2023-03-16T08:03:30.333Z,80.08
2023-03-16T08:06:05.876Z,80.13
2023-03-16T08:08:35.033Z,79.96
2023-03-16T08:11:03.470Z,80.10
2023-03-16T08:13:44.748Z,80.41
2023-03-16T08:16:14.372Z,80.34
2023-03-16T08:18:46.480Z,80.15
2023-03-16T08:21:17.618Z,80.51
2023-03-16T08:23:52.405Z,80.22
2023-03-16T08:26:23.836Z,80.29
2023-03-16T08:28:59.144Z,80.82
2023-03-16T08:31:45.937Z,80.39
2023-03-16T08:34:22.652Z,80.29
2023-03-16T08:36:50.865Z,80.57
2023-03-16T08:39:20.788Z,80.70
2023-03-16T08:41:50.189Z,80.27
2023-03-16T08:44:26.548Z,80.04
2023-03-16T08:46:56.952Z,80.28
2023-03-16T08:49:25.911Z,80.32
2023-03-16T08:52:03.756Z,80.66
2023-03-16T08:54:33.012Z,81.09
2023-03-16T08:57:06.256Z,81.42
2023-03-16T08:59:34.744Z,80.37
2023-03-16T09:02:04.823Z,79.79
2023-03-16T09:04:33.848Z,79.70
2023-03-16T09:07:08.955Z,79.65
2023-03-16T09:09:38.242Z,79.79
2023-03-16T09:12:08.728Z,80.24
2023-03-16T09:14:38.803Z,80.12
2023-03-16T09:17:12.080Z,79.61
2023-03-16T09:19:51.090Z,79.70
2023-03-16T09:22:21.021Z,79.35
2023-03-16T09:24:50.006Z,79.27
2023-03-16T09:27:18.732Z,79.45
2023-03-16T09:29:50.037Z,79.17
2023-03-16T09:32:20.397Z,79.43
2023-03-16T09:34:48.295Z,78.83
2023-03-16T09:37:27.806Z,78.81
2023-03-16T09:40:03.199Z,79.46
2023-03-16T09:42:36.904Z,78.94
2023-03-16T09:45:23.594Z,78.45
2023-03-16T09:47:51.719Z,78.10
2023-03-16T09:50:47.733Z,78.88
2023-03-16T09:53:25.625Z,78.80
2023-03-16T09:56:18.764Z,77.40
2023-03-16T09:58:47.249Z,77.72
2023-03-16T10:01:19.167Z,77.50
2023-03-16T10:03:50.405Z,77.87
2023-03-16T10:06:18.426Z,78.68
2023-03-16T10:08:53.649Z,79.00
2023-03-16T10:11:33.366Z,77.62
2023-03-16T10:14:18.231Z,77.78
2023-03-16T10:17:01.675Z,76.06
2023-03-16T10:19:42.716Z,76.85
2023-03-16T10:22:26.837Z,77.41
2023-03-16T10:25:07.596Z,76.76
2023-03-16T10:27:37.423Z,75.75
2023-03-16T10:30:19.184Z,76.54
2023-03-16T10:32:47.535Z,78.82
2023-03-16T10:35:40.892Z,77.61
2023-03-16T10:38:48.601Z,78.36
2023-03-16T10:41:23.026Z,78.36
2023-03-16T10:43:53.228Z,81.32
2023-03-16T10:46:21.472Z,81.42
2023-03-16T10:49:00.574Z,83.06
2023-03-16T10:51:33.412Z,81.63
2023-03-16T10:54:18.085Z,81.87
2023-03-16T10:56:46.568Z,80.81
2023-03-16T10:59:34.706Z,81.70
2023-03-16T11:02:04.388Z,83.90
2023-03-16T11:04:34.103Z,82.74
2023-03-16T11:07:03.006Z,82.37
2023-03-16T11:09:33.537Z,83.29
2023-03-16T11:12:18.226Z,83.36
2023-03-16T11:14:52.783Z,81.33
2023-03-16T11:17:50.116Z,81.55
2023-03-16T11:20:22.266Z,82.43
2023-03-16T11:22:53.755Z,83.06
2023-03-16T11:25:29.838Z,82.67
2023-03-16T11:28:13.411Z,83.36
2023-03-16T11:30:45.025Z,81.49
2023-03-16T11:33:15.858Z,81.25
2023-03-16T11:36:30.221Z,83.05
2023-03-16T11:39:10.142Z,82.07
2023-03-16T11:42:16.913Z,80.85
2023-03-16T11:45:20.041Z,79.50
2023-03-16T11:47:58.668Z,80.81
2023-03-16T11:50:37.984Z,78.59
2023-03-16T11:53:29.778Z,79.13
2023-03-16T11:56:19.165Z,76.81
2023-03-16T11:59:18.421Z,75.03
2023-03-16T12:02:00.913Z,75.10
2023-03-16T12:04:47.688Z,74.71
2023-03-16T12:07:22.259Z,74.91
2023-03-16T12:09:53.485Z,74.47
2023-03-16T12:12:38.056Z,74.23
2023-03-16T12:15:28.354Z,75.53
2023-03-16T12:18:03.055Z,75.93
2023-03-16T12:20:36.061Z,77.20
2023-03-16T12:23:15.504Z,77.82
2023-03-16T12:25:46.408Z,75.76
2023-03-16T12:28:19.510Z,74.50
2023-03-16T12:31:05.208Z,75.33
2023-03-16T12:33:48.984Z,75.10
2023-03-16T12:36:19.830Z,74.17
2023-03-16T12:38:57.334Z,75.25
2023-03-16T12:41:54.880Z,74.83
2023-03-16T12:44:57.686Z,74.81
2023-03-16T12:47:59.350Z,75.04
2023-03-16T12:50:27.908Z,74.96
2023-03-16T12:52:56.161Z,74.86
2023-03-16T12:55:35.153Z,75.20
2023-03-16T12:58:06.667Z,74.78
2023-03-16T13:00:37.844Z,75.40
2023-03-16T13:03:06.986Z,75.19
2023-03-16T13:05:36.625Z,75.73
2023-03-16T13:08:10.976Z,76.43
2023-03-16T13:10:40.120Z,76.73
2023-03-16T13:13:16.443Z,76.70
2023-03-16T13:15:47.699Z,76.87
2023-03-16T13:18:20.313Z,77.27
2023-03-16T13:20:48.576Z,77.54
2023-03-16T13:23:19.193Z,76.61
2023-03-16T13:26:28.609Z,75.86
2023-03-16T13:28:56.917Z,75.94
2023-03-16T13:31:27.667Z,76.29
2023-03-16T13:33:57.151Z,76.56
2023-03-16T13:36:31.078Z,76.64
2023-03-16T13:39:14.366Z,76.89
2023-03-16T13:41:43.935Z,76.18
2023-03-16T13:44:15.757Z,76.20
2023-03-16T13:46:50.004Z,75.80
2023-03-16T13:49:18.742Z,75.94
2023-03-16T13:51:47.540Z,75.64
2023-03-16T13:54:31.033Z,75.67
2023-03-16T13:57:00.576Z,75.61
2023-03-16T13:59:28.540Z,75.74
2023-03-16T14:01:59.059Z,75.56
2023-03-16T14:04:29.813Z,75.66
2023-03-16T14:07:00.752Z,75.08
2023-03-16T14:09:30.990Z,75.30
2023-03-16T14:11:59.072Z,75.21
2023-03-16T14:14:39.824Z,75.07
2023-03-16T14:17:34.538Z,75.40
2023-03-16T14:20:12.036Z,75.47
2023-03-16T14:22:41.144Z,75.40
2023-03-16T14:25:12.220Z,75.38
2023-03-16T14:27:41.414Z,75.64
2023-03-16T14:30:27.287Z,75.66
2023-03-16T14:33:07.039Z,76.17
2023-03-16T14:35:47.200Z,76.22
2023-03-16T14:38:38.356Z,76.26
2023-03-16T14:41:26.871Z,76.48
2023-03-16T14:43:56.586Z,76.29
2023-03-16T14:46:29.744Z,76.54
2023-03-16T14:49:01.977Z,76.77
2023-03-16T14:51:34.419Z,76.73
2023-03-16T14:54:03.105Z,76.43
2023-03-16T14:56:37.813Z,76.25
2023-03-16T14:59:09.378Z,76.20
2023-03-16T15:01:38.380Z,76.79
2023-03-16T15:04:07.811Z,77.27
2023-03-16T15:06:36.835Z,77.12
2023-03-16T15:09:05.078Z,79.15
2023-03-16T15:11:35.242Z,78.53
2023-03-16T15:14:15.185Z,78.31
2023-03-16T15:16:43.525Z,78.35
2023-03-16T15:19:12.158Z,77.92
2023-03-16T15:21:40.874Z,78.79
2023-03-16T15:24:12.319Z,78.78
2023-03-16T15:26:41.609Z,79.23
2023-03-16T15:29:10.955Z,79.98
2023-03-16T15:31:39.613Z,79.90
2023-03-16T15:34:07.569Z,83.75
2023-03-16T15:36:36.116Z,81.48
2023-03-16T15:39:04.743Z,81.35
2023-03-16T15:41:46.760Z,81.22
2023-03-16T15:44:16.216Z,81.20
2023-03-16T15:46:45.746Z,81.20
2023-03-16T15:49:14.337Z,82.01
2023-03-16T15:51:43.590Z,82.15
2023-03-16T15:54:12.520Z,83.88
2023-03-16T15:56:53.171Z,82.76
2023-03-16T15:59:27.461Z,83.50
2023-03-16T16:01:56.277Z,82.23
2023-03-16T16:04:26.396Z,82.14
2023-03-16T16:06:55.993Z,83.22
2023-03-16T16:09:25.873Z,85.73
2023-03-16T16:11:53.864Z,85.09
2023-03-16T16:14:25.123Z,86.08
2023-03-16T16:16:54.990Z,86.13
2023-03-16T16:19:23.845Z,87.49
2023-03-16T16:21:55.465Z,87.13
2023-03-16T16:24:23.901Z,87.44
2023-03-16T16:26:55.351Z,87.20
2023-03-16T16:29:27.113Z,88.64
2023-03-16T16:31:55.686Z,87.30
2023-03-16T16:34:25.941Z,87.49
2023-03-16T16:36:56.324Z,87.96
2023-03-16T16:39:24.767Z,88.24
2023-03-16T16:41:57.142Z,87.33
2023-03-16T16:44:27.534Z,87.66
2023-03-16T16:46:59.853Z,87.40
2023-03-16T16:49:30.658Z,87.66
2023-03-16T16:51:58.593Z,88.37
2023-03-16T16:54:28.568Z,87.40
2023-03-16T16:56:57.373Z,87.35
2023-03-16T16:59:34.851Z,87.06
2023-03-16T17:02:03.333Z,86.87
2023-03-16T17:04:32.233Z,86.58
2023-03-16T17:07:03.631Z,87.16
2023-03-16T17:09:31.927Z,87.83
2023-03-16T17:12:01.925Z,86.93
2023-03-16T17:14:34.163Z,86.71
2023-03-16T17:17:08.619Z,87.21
2023-03-16T17:19:36.524Z,88.38
2023-03-16T17:22:07.349Z,90.62
2023-03-16T17:24:37.691Z,90.96
2023-03-16T17:27:06.270Z,90.21
2023-03-16T17:29:34.382Z,90.38
2023-03-16T17:32:05.435Z,89.15
2023-03-16T17:34:34.057Z,88.74
2023-03-16T17:37:03.919Z,89.85
2023-03-16T17:39:35.270Z,90.91
2023-03-16T17:42:06.555Z,90.88
2023-03-16T17:44:40.573Z,92.23
2023-03-16T17:47:39.796Z,91.38
2023-03-16T17:50:25.669Z,93.15
2023-03-16T17:52:54.840Z,91.43
2023-03-16T17:55:26.211Z,91.78
2023-03-16T17:57:55.679Z,90.50
2023-03-16T18:00:27.104Z,89.81
2023-03-16T18:03:07.277Z,88.84
2023-03-16T18:05:36.779Z,90.09
2023-03-16T18:08:20.839Z,90.74
2023-03-16T18:10:53.468Z,91.00
2023-03-16T18:13:33.559Z,90.47
2023-03-16T18:16:07.756Z,90.79
2023-03-16T18:18:39.780Z,91.80
2023-03-16T18:21:20.167Z,91.38
2023-03-16T18:23:48.425Z,91.54
2023-03-16T18:26:20.013Z,92.04
2023-03-16T18:28:50.821Z,92.30
2023-03-16T18:31:22.231Z,91.33
2023-03-16T18:33:51.646Z,92.85
2023-03-16T18:36:21.116Z,92.99
2023-03-16T18:38:54.167Z,92.81
2023-03-16T18:41:23.137Z,92.92
2023-03-16T18:43:52.295Z,93.13
2023-03-16T18:46:31.136Z,91.59
2023-03-16T18:49:01.696Z,91.93
2023-03-16T18:51:35.673Z,92.68
2023-03-16T18:54:05.011Z,93.11
2023-03-16T18:56:33.693Z,94.78
2023-03-16T18:59:02.540Z,94.10
2023-03-16T19:01:31.375Z,93.39
2023-03-16T19:04:00.890Z,92.31
2023-03-16T19:06:34.159Z,92.63
2023-03-16T19:09:26.844Z,95.12
2023-03-16T19:11:57.785Z,92.08
2023-03-16T19:14:33.334Z,94.09
2023-03-16T19:17:05.710Z,91.72
2023-03-16T19:19:34.290Z,91.49
2023-03-16T19:22:14.074Z,91.44
2023-03-16T19:24:51.677Z,91.88
2023-03-16T19:27:26.605Z,92.25
2023-03-16T19:29:58.579Z,92.58
2023-03-16T19:32:26.877Z,93.06
2023-03-16T19:34:59.719Z,94.84
2023-03-16T19:37:30.414Z,94.82
2023-03-16T19:40:01.345Z,95.64
2023-03-16T19:42:30.380Z,95.86
2023-03-16T19:44:58.210Z,96.10
2023-03-16T19:47:31.238Z,96.86
2023-03-16T19:49:59.427Z,96.27
2023-03-16T19:52:28.710Z,96.27
2023-03-16T19:54:58.044Z,96.29
2023-03-16T19:57:25.898Z,97.57
2023-03-16T19:59:58.331Z,95.89
2023-03-16T20:02:27.385Z,97.88
2023-03-16T20:04:56.105Z,98.14
2023-03-16T20:07:25.325Z,96.30
2023-03-16T20:09:54.259Z,95.19
2023-03-16T20:12:25.189Z,95.93
2023-03-16T20:14:55.902Z,96.99
2023-03-16T20:17:25.600Z,96.54
2023-03-16T20:19:53.575Z,96.13
2023-03-16T20:22:23.294Z,97.34
2023-03-16T20:24:53.406Z,97.17
2023-03-16T20:27:23.254Z,96.94
2023-03-16T20:29:52.062Z,97.92
2023-03-16T20:32:21.308Z,96.96
2023-03-16T20:34:51.584Z,95.20
2023-03-16T20:37:28.012Z,94.93
2023-03-16T20:39:57.390Z,95.91
2023-03-16T20:42:32.440Z,94.50
2023-03-16T20:45:01.946Z,94.92
2023-03-16T20:47:31.814Z,93.35
2023-03-16T20:50:01.410Z,93.71
2023-03-16T20:52:31.117Z,92.85
2023-03-16T20:55:00.003Z,91.68
2023-03-16T20:57:30.341Z,92.49
2023-03-16T20:59:58.496Z,93.88
2023-03-16T21:02:27.915Z,93.19
2023-03-16T21:04:56.943Z,93.19
2023-03-16T21:07:25.354Z,92.39
2023-03-16T21:09:54.090Z,93.13
2023-03-16T21:12:36.199Z,92.75
2023-03-16T21:15:15.552Z,93.25
2023-03-16T21:17:46.709Z,91.73
2023-03-16T21:20:17.781Z,92.19
2023-03-16T21:22:46.422Z,91.86
2023-03-16T21:25:19.992Z,92.95
2023-03-16T21:27:50.041Z,93.77
2023-03-16T21:30:28.804Z,92.47
2023-03-16T21:33:00.247Z,92.35
2023-03-16T21:35:36.191Z,93.02
2023-03-16T21:38:17.786Z,92.49
2023-03-16T21:40:46.241Z,93.89
2023-03-16T21:43:14.470Z,93.80
2023-03-16T21:45:42.427Z,93.27
2023-03-16T21:48:35.061Z,94.50
2023-03-16T21:51:03.356Z,96.31
2023-03-16T21:53:33.783Z,96.76
2023-03-16T21:56:03.762Z,95.69
2023-03-16T21:58:31.783Z,95.34
2023-03-16T22:01:00.413Z,95.42
2023-03-16T22:03:47.690Z,94.39
2023-03-16T22:06:18.624Z,95.38
2023-03-16T22:08:46.863Z,95.92
2023-03-16T22:11:21.415Z,96.39
2023-03-16T22:13:49.882Z,95.84
2023-03-16T22:16:19.914Z,95.98
2023-03-16T22:18:52.379Z,95.66
2023-03-16T22:21:39.704Z,95.74
2023-03-16T22:24:26.273Z,95.30
2023-03-16T22:26:54.691Z,95.49
2023-03-16T22:29:26.728Z,95.79
2023-03-16T22:32:00.009Z,96.12
2023-03-16T22:34:47.538Z,96.55
2023-03-16T22:37:21.734Z,97.31
2023-03-16T22:39:50.039Z,96.84
2023-03-16T22:42:36.148Z,97.71
2023-03-16T22:45:15.765Z,97.76
2023-03-16T22:47:50.109Z,97.71
2023-03-16T22:50:19.748Z,97.68
2023-03-16T22:52:49.381Z,97.76
2023-03-16T22:55:23.087Z,98.03
2023-03-16T22:57:51.737Z,97.79
2023-03-16T23:00:28.907Z,97.62
2023-03-16T23:02:58.127Z,97.26
2023-03-16T23:05:33.879Z,97.09
2023-03-16T23:08:06.211Z,96.35
2023-03-16T23:10:34.641Z,95.89
2023-03-16T23:13:20.285Z,96.30
2023-03-16T23:15:49.425Z,97.78
2023-03-16T23:18:21.267Z,98.71
2023-03-16T23:20:49.759Z,97.07
2023-03-16T23:23:18.066Z,96.99
2023-03-16T23:25:48.369Z,95.82
2023-03-16T23:28:23.585Z,97.61
2023-03-16T23:30:52.091Z,96.31
2023-03-16T23:33:22.107Z,97.45
2023-03-16T23:35:50.607Z,95.93
2023-03-16T23:38:20.597Z,97.85
2023-03-16T23:40:50.094Z,98.44
2023-03-16T23:43:24.101Z,98.62
2023-03-16T23:45:52.366Z,98.09
2023-03-16T23:48:21.076Z,96.18
2023-03-16T23:50:54.774Z,97.62
2023-03-16T23:53:24.363Z,99.26
2023-03-16T23:55:52.946Z,97.02
2023-03-16T23:58:22.449Z,97.15
